CWE weather

Cairo West Airport
El Cairo, Giza Governorate, Egypt

Public forecast

Using degrees Celsius for public forecast. Weather courtesy of forecast.io.

METAR (pilot weather report)

Closest report is Cairo International Airport, 25.5 nm (47.2 km) E. Retrieved 2019/02/17 21:30 UTC (6 minutes ago):

HECA 172130Z 18003KT 6000 SCT025 BKN030 13/04 Q1020 NOSIG

TAF (pilot weather forecast)

Closest forecast is Cairo International Airport, 25.5 nm (47.2 km) E. Retrieved 2019/02/17 18:40 UTC (3 hours ago):

TAF COR HECA 171724Z 1718/1824 30010KT 6000 SCT025 BKN030 TEMPO 1718/1806 30010G20KT RA FEW020CB PROB30 TEMPO 1718/1803 TS